createdAt,value
2023-02-19T00:00:27.278Z,97435.70
2023-02-19T00:03:21.340Z,97440.58
2023-02-19T00:05:50.028Z,97442.39
2023-02-19T00:08:18.728Z,97444.05
2023-02-19T00:10:47.381Z,97444.77
2023-02-19T00:13:16.430Z,97444.59
2023-02-19T00:15:49.552Z,97446.64
2023-02-19T00:18:24.108Z,97440.68
2023-02-19T00:20:56.657Z,97441.66
2023-02-19T00:23:28.359Z,97448.42
2023-02-19T00:26:17.173Z,97452.17
2023-02-19T00:28:51.642Z,97453.71
2023-02-19T00:31:23.880Z,97457.19
2023-02-19T00:34:00.887Z,97453.54
2023-02-19T00:36:32.912Z,97454.13
2023-02-19T00:39:01.840Z,97450.38
2023-02-19T00:41:30.885Z,97453.16
2023-02-19T00:44:08.354Z,97454.44
2023-02-19T00:46:39.831Z,97455.20
2023-02-19T00:49:18.578Z,97455.71
2023-02-19T00:51:48.045Z,97456.57
2023-02-19T00:54:17.305Z,97455.48
2023-02-19T00:56:49.277Z,97454.48
2023-02-19T00:59:18.237Z,97450.22
2023-02-19T01:01:50.016Z,97448.15
2023-02-19T01:04:22.717Z,97450.71
2023-02-19T01:06:54.223Z,97451.73
2023-02-19T01:09:25.525Z,97450.44
2023-02-19T01:11:56.617Z,97448.48
2023-02-19T01:14:29.903Z,97443.61
2023-02-19T01:17:05.454Z,97440.45
2023-02-19T01:19:42.788Z,97440.73
2023-02-19T01:22:11.403Z,97443.57
2023-02-19T01:24:42.561Z,97443.89
2023-02-19T01:27:11.196Z,97442.48
2023-02-19T01:29:39.968Z,97442.98
2023-02-19T01:32:08.716Z,97440.64
2023-02-19T01:34:37.609Z,97442.52
2023-02-19T01:37:08.299Z,97445.60
2023-02-19T01:39:36.922Z,97441.83
2023-02-19T01:42:16.699Z,97440.43
2023-02-19T01:44:48.346Z,97438.89
2023-02-19T01:47:23.008Z,97434.79
2023-02-19T01:50:00.218Z,97436.05
2023-02-19T01:52:36.706Z,97439.73
2023-02-19T01:55:08.949Z,97435.96
2023-02-19T01:57:45.873Z,97442.33
2023-02-19T02:00:17.773Z,97446.60
2023-02-19T02:02:51.806Z,97444.52
2023-02-19T02:05:31.486Z,97446.30
2023-02-19T02:08:22.037Z,97448.38
2023-02-19T02:10:52.205Z,97452.40
2023-02-19T02:13:21.154Z,97453.89
2023-02-19T02:16:24.384Z,97448.06
2023-02-19T02:19:09.892Z,97453.20
2023-02-19T02:21:59.432Z,97460.50
2023-02-19T02:24:56.121Z,97466.21
2023-02-19T02:27:46.483Z,97475.16
2023-02-19T02:30:32.573Z,97477.27
2023-02-19T02:33:17.444Z,97480.45
2023-02-19T02:36:20.874Z,97485.13
2023-02-19T02:38:50.557Z,97492.29
2023-02-19T02:41:22.251Z,97497.61
2023-02-19T02:43:55.561Z,97502.59
2023-02-19T02:46:30.759Z,97507.06
2023-02-19T02:49:09.364Z,97509.06
2023-02-19T02:51:50.304Z,97511.46
2023-02-19T02:54:54.708Z,97517.95
2023-02-19T02:57:25.907Z,97516.98
2023-02-19T02:59:56.963Z,97515.14
2023-02-19T03:02:30.890Z,97516.83
2023-02-19T03:05:39.647Z,97516.95
2023-02-19T03:08:14.594Z,97516.57
2023-02-19T03:10:50.551Z,97515.95
2023-02-19T03:13:47.308Z,97517.65
2023-02-19T03:16:41.790Z,97519.56
2023-02-19T03:19:26.008Z,97522.88
2023-02-19T03:22:10.359Z,97527.20
2023-02-19T03:25:04.185Z,97536.25
2023-02-19T03:27:38.353Z,97544.19
2023-02-19T03:30:15.864Z,97553.27
2023-02-19T03:32:56.346Z,97558.05
2023-02-19T03:35:29.094Z,97566.00
2023-02-19T03:38:01.697Z,97571.00
2023-02-19T03:40:35.056Z,97574.55
2023-02-19T03:43:21.953Z,97579.95
2023-02-19T03:46:16.862Z,97582.48
2023-02-19T03:48:57.383Z,97583.68
2023-02-19T03:51:30.509Z,97589.98
2023-02-19T03:54:08.324Z,97599.70
2023-02-19T03:57:04.823Z,97606.23
2023-02-19T03:59:49.992Z,97609.15
2023-02-19T04:02:29.401Z,97607.29
2023-02-19T04:05:12.049Z,97604.04
2023-02-19T04:07:48.226Z,97606.80
2023-02-19T04:10:19.471Z,97611.55
2023-02-19T04:12:53.344Z,97612.31
2023-02-19T04:15:31.015Z,97608.73
2023-02-19T04:18:14.691Z,97612.40
2023-02-19T04:20:46.602Z,97612.54
2023-02-19T04:23:20.457Z,97614.20
2023-02-19T04:25:52.736Z,97613.35
2023-02-19T04:28:21.998Z,97611.77
2023-02-19T04:30:50.647Z,97606.89
2023-02-19T04:33:21.493Z,97605.89
2023-02-19T04:35:50.058Z,97606.91
2023-02-19T04:38:23.126Z,97610.98
2023-02-19T04:40:55.253Z,97612.79
2023-02-19T04:43:23.865Z,97616.96
2023-02-19T04:45:59.528Z,97623.48
2023-02-19T04:48:28.285Z,97623.98
2023-02-19T04:50:59.844Z,97622.93
2023-02-19T04:53:31.612Z,97624.06
2023-02-19T04:56:07.541Z,97627.15
2023-02-19T04:58:39.456Z,97628.80
2023-02-19T05:01:10.032Z,97627.95
2023-02-19T05:03:39.106Z,97623.33
2023-02-19T05:06:11.041Z,97628.88
2023-02-19T05:08:42.906Z,97624.77
2023-02-19T05:11:13.074Z,97623.10
2023-02-19T05:13:41.951Z,97621.84
2023-02-19T05:16:16.465Z,97620.56
2023-02-19T05:18:46.525Z,97614.83
2023-02-19T05:21:16.238Z,97612.04
2023-02-19T05:23:45.307Z,97616.47
2023-02-19T05:26:19.989Z,97619.31
2023-02-19T05:28:53.281Z,97618.84
2023-02-19T05:31:22.450Z,97623.95
2023-02-19T05:33:53.090Z,97622.31
2023-02-19T05:36:22.566Z,97627.69
2023-02-19T05:38:55.739Z,97629.10
2023-02-19T05:41:29.183Z,97631.11
2023-02-19T05:43:58.291Z,97631.89
2023-02-19T05:46:32.330Z,97627.98
2023-02-19T05:49:05.776Z,97621.48
2023-02-19T05:51:39.039Z,97612.63
2023-02-19T05:54:10.988Z,97607.42
2023-02-19T05:56:43.810Z,97602.46
2023-02-19T05:59:19.720Z,97605.84
2023-02-19T06:01:49.942Z,97601.20
2023-02-19T06:04:20.155Z,97597.77
2023-02-19T06:06:49.244Z,97595.87
2023-02-19T06:09:17.872Z,97589.41
2023-02-19T06:11:47.277Z,97583.98
2023-02-19T06:14:16.414Z,97585.09
2023-02-19T06:16:45.407Z,97579.61
2023-02-19T06:19:14.526Z,97572.02
2023-02-19T06:21:46.915Z,97561.17
2023-02-19T06:24:16.234Z,97557.67
2023-02-19T06:26:45.766Z,97557.81
2023-02-19T06:29:14.369Z,97562.41
2023-02-19T06:31:43.056Z,97568.80
2023-02-19T06:34:12.438Z,97567.44
2023-02-19T06:36:41.108Z,97564.50
2023-02-19T06:39:10.576Z,97562.71
2023-02-19T06:41:39.110Z,97563.52
2023-02-19T06:44:08.439Z,97560.80
2023-02-19T06:46:37.953Z,97555.05
2023-02-19T06:49:06.771Z,97560.48
2023-02-19T06:51:35.311Z,97568.62
2023-02-19T06:54:06.807Z,97570.42
2023-02-19T06:56:40.249Z,97572.23
2023-02-19T06:59:12.373Z,97571.42
2023-02-19T07:01:41.146Z,97570.98
2023-02-19T07:04:09.962Z,97572.28
2023-02-19T07:06:38.816Z,97564.81
2023-02-19T07:09:11.716Z,97560.31
2023-02-19T07:11:41.163Z,97554.13
2023-02-19T07:14:16.086Z,97552.43
2023-02-19T07:16:45.151Z,97545.55
2023-02-19T07:19:15.239Z,97542.34
2023-02-19T07:21:44.568Z,97545.35
2023-02-19T07:24:14.808Z,97551.30
2023-02-19T07:26:43.515Z,97555.72
2023-02-19T07:29:12.162Z,97555.31
2023-02-19T07:31:40.819Z,97551.50
2023-02-19T07:34:09.410Z,97554.95
2023-02-19T07:36:38.147Z,97556.16
2023-02-19T07:39:13.017Z,97559.35
2023-02-19T07:41:42.091Z,97553.80
2023-02-19T07:44:13.797Z,97556.44
2023-02-19T07:46:43.253Z,97551.66
2023-02-19T07:49:13.081Z,97547.51
2023-02-19T07:51:42.050Z,97550.27
2023-02-19T07:54:10.588Z,97548.24
2023-02-19T07:56:39.174Z,97543.15
2023-02-19T07:59:08.093Z,97538.38
2023-02-19T08:02:05.479Z,97537.32
2023-02-19T08:04:34.283Z,97540.41
2023-02-19T08:07:02.992Z,97539.10
2023-02-19T08:09:32.531Z,97531.56
2023-02-19T08:12:19.669Z,97531.64
2023-02-19T08:14:50.408Z,97539.23
2023-02-19T08:17:19.125Z,97533.58
2023-02-19T08:19:47.740Z,97525.30
2023-02-19T08:22:16.565Z,97517.96
2023-02-19T08:24:45.352Z,97515.40
2023-02-19T08:27:13.948Z,97504.59
2023-02-19T08:29:42.542Z,97501.56
2023-02-19T08:32:11.277Z,97495.83
2023-02-19T08:34:42.781Z,97497.98
2023-02-19T08:37:11.546Z,97491.93
2023-02-19T08:39:44.942Z,97490.85
2023-02-19T08:42:18.547Z,97490.22
2023-02-19T08:44:47.122Z,97489.80
2023-02-19T08:47:15.808Z,97489.54
2023-02-19T08:49:44.491Z,97483.17
2023-02-19T08:52:13.220Z,97488.09
2023-02-19T08:54:41.863Z,97484.12
2023-02-19T08:57:10.760Z,97476.67
2023-02-19T08:59:41.489Z,97471.20
2023-02-19T09:02:13.060Z,97462.93
2023-02-19T09:04:41.731Z,97459.33
2023-02-19T09:07:12.568Z,97455.61
2023-02-19T09:09:43.672Z,97456.30
2023-02-19T09:12:13.346Z,97457.52
2023-02-19T09:14:42.099Z,97461.37
2023-02-19T09:17:11.487Z,97461.08
2023-02-19T09:19:40.414Z,97462.48
2023-02-19T09:22:09.301Z,97465.47
2023-02-19T09:24:38.036Z,97471.06
2023-02-19T09:27:06.707Z,97470.22
2023-02-19T09:29:35.373Z,97474.95
2023-02-19T09:32:06.269Z,97476.61
2023-02-19T09:34:38.043Z,97470.45
2023-02-19T09:37:07.649Z,97471.77
2023-02-19T09:39:39.314Z,97463.45
2023-02-19T09:42:24.895Z,97464.55
2023-02-19T09:44:57.886Z,97469.16
2023-02-19T09:47:33.140Z,97466.42
2023-02-19T09:50:09.938Z,97466.29
2023-02-19T09:52:48.837Z,97468.25
2023-02-19T09:55:20.636Z,97462.27
2023-02-19T09:57:51.037Z,97455.16
2023-02-19T10:00:31.819Z,97455.83
2023-02-19T10:03:10.768Z,97457.08
2023-02-19T10:05:43.500Z,97457.67
2023-02-19T10:08:18.523Z,97456.47
2023-02-19T10:10:48.536Z,97459.10
2023-02-19T10:13:23.523Z,97458.60
2023-02-19T10:15:56.472Z,97458.52
2023-02-19T10:18:30.292Z,97458.40
2023-02-19T10:20:59.153Z,97451.04
2023-02-19T10:23:28.618Z,97443.73
2023-02-19T10:26:01.026Z,97448.97
2023-02-19T10:28:33.991Z,97441.67
2023-02-19T10:31:14.848Z,97429.23
2023-02-19T10:33:56.240Z,97420.15
2023-02-19T10:36:39.150Z,97418.69
2023-02-19T10:39:23.092Z,97420.30
2023-02-19T10:41:56.834Z,97416.90
2023-02-19T10:44:28.416Z,97412.07
2023-02-19T10:47:00.517Z,97411.81
2023-02-19T10:49:38.473Z,97410.84
2023-02-19T10:52:36.511Z,97410.96
2023-02-19T10:55:29.480Z,97398.70
2023-02-19T10:57:58.543Z,97396.04
2023-02-19T11:00:31.706Z,97405.78
2023-02-19T11:03:21.805Z,97400.08
2023-02-19T11:06:05.835Z,97405.52
2023-02-19T11:08:47.730Z,97403.92
2023-02-19T11:11:30.339Z,97408.59
2023-02-19T11:14:02.953Z,97416.19
2023-02-19T11:16:52.213Z,97418.08
2023-02-19T11:22:49.526Z,97402.13
2023-02-19T11:25:21.631Z,97401.33
2023-02-19T11:28:00.308Z,97392.61
2023-02-19T11:30:35.214Z,97396.55
2023-02-19T11:33:17.053Z,97400.96
2023-02-19T11:35:47.570Z,97388.73
2023-02-19T11:38:19.610Z,97383.73
2023-02-19T11:41:45.630Z,97378.27
2023-02-19T11:44:30.558Z,97380.66
2023-02-19T11:47:11.253Z,97373.05
2023-02-19T11:49:53.914Z,97377.00
2023-02-19T11:52:48.714Z,97369.67
2023-02-19T11:55:42.532Z,97366.71
2023-02-19T11:58:29.980Z,97369.92
2023-02-19T12:01:23.271Z,97364.15
2023-02-19T12:04:13.315Z,97362.64
2023-02-19T12:06:44.908Z,97362.94
2023-02-19T12:09:43.503Z,97358.34
2023-02-19T12:12:15.264Z,97355.91
2023-02-19T12:15:02.528Z,97359.42
2023-02-19T12:17:43.333Z,97360.30
2023-02-19T12:20:19.872Z,97356.45
2023-02-19T12:22:58.473Z,97352.95
2023-02-19T12:25:53.294Z,97347.52
2023-02-19T12:28:42.021Z,97349.08
2023-02-19T12:31:23.047Z,97347.91
2023-02-19T12:34:03.456Z,97341.48
2023-02-19T12:37:16.675Z,97346.36
2023-02-19T12:39:54.599Z,97345.13
2023-02-19T12:42:51.361Z,97350.19
2023-02-19T12:45:25.033Z,97347.73
2023-02-19T12:48:25.773Z,97350.79
2023-02-19T12:50:59.165Z,97358.06
2023-02-19T12:53:52.084Z,97365.73
2023-02-19T12:56:40.740Z,97370.23
2023-02-19T12:59:39.394Z,97377.15
2023-02-19T13:02:28.356Z,97374.26
2023-02-19T13:05:18.032Z,97373.25
2023-02-19T13:07:46.643Z,97372.71
2023-02-19T13:10:41.398Z,97377.66
2023-02-19T13:13:38.958Z,97369.39
2023-02-19T13:16:18.454Z,97369.71
2023-02-19T13:18:59.955Z,97378.89
2023-02-19T13:21:57.460Z,97377.64
2023-02-19T13:24:34.158Z,97373.08
2023-02-19T13:27:14.880Z,97369.76
2023-02-19T13:30:08.392Z,97364.54
2023-02-19T13:33:07.672Z,97362.34
2023-02-19T13:36:01.597Z,97357.64
2023-02-19T13:38:30.169Z,97351.95
2023-02-19T13:41:00.523Z,97355.11
2023-02-19T13:43:40.107Z,97351.73
2023-02-19T13:46:12.610Z,97344.85
2023-02-19T13:48:47.343Z,97333.75
2023-02-19T13:51:24.709Z,97335.22
2023-02-19T13:53:56.212Z,97320.60
2023-02-19T13:56:36.737Z,97313.07
2023-02-19T13:59:11.202Z,97310.55
2023-02-19T14:01:52.119Z,97316.84
2023-02-19T14:04:22.868Z,97314.23
2023-02-19T14:07:03.796Z,97319.04
2023-02-19T14:09:40.099Z,97327.16
2023-02-19T14:12:09.774Z,97325.65
2023-02-19T14:14:49.652Z,97320.59
2023-02-19T14:17:36.296Z,97320.89
2023-02-19T14:20:41.689Z,97317.99
2023-02-19T14:23:24.362Z,97313.54
2023-02-19T14:25:59.564Z,97311.18
2023-02-19T14:28:35.852Z,97308.05
2023-02-19T14:31:27.137Z,97311.22
2023-02-19T14:34:00.027Z,97298.45
2023-02-19T14:36:53.497Z,97285.35
2023-02-19T14:39:26.997Z,97288.27
2023-02-19T14:42:01.263Z,97283.00
2023-02-19T14:44:34.969Z,97277.39
2023-02-19T14:47:07.291Z,97276.44
2023-02-19T14:49:50.000Z,97276.77
2023-02-19T14:52:57.911Z,97261.52
2023-02-19T14:55:35.243Z,97250.28
2023-02-19T14:58:14.226Z,97247.84
2023-02-19T15:00:44.198Z,97250.61
2023-02-19T15:03:37.508Z,97244.19
2023-02-19T15:06:17.753Z,97235.23
2023-02-19T15:08:59.003Z,97229.77
2023-02-19T15:11:34.096Z,97223.80
2023-02-19T15:14:05.999Z,97219.38
2023-02-19T15:16:39.243Z,97212.94
2023-02-19T15:19:14.689Z,97207.70
2023-02-19T15:21:50.360Z,97205.35
2023-02-19T15:24:24.159Z,97203.48
2023-02-19T15:26:55.657Z,97202.77
2023-02-19T15:29:28.183Z,97212.88
2023-02-19T15:32:00.956Z,97219.52
2023-02-19T15:34:32.304Z,97228.19
2023-02-19T15:37:04.656Z,97235.77
2023-02-19T15:39:44.230Z,97246.94
2023-02-19T15:42:20.046Z,97269.23
2023-02-19T15:45:25.510Z,97286.78
2023-02-19T15:48:21.017Z,97291.57
2023-02-19T15:50:59.643Z,97291.15
2023-02-19T15:53:31.861Z,97300.00
2023-02-19T15:56:00.284Z,97305.86
2023-02-19T15:58:50.872Z,97305.11
2023-02-19T16:01:28.093Z,97307.14
2023-02-19T16:03:58.639Z,97303.16
2023-02-19T16:06:28.341Z,97299.55
2023-02-19T16:09:06.070Z,97300.91
2023-02-19T16:11:36.045Z,97302.67
2023-02-19T16:14:26.686Z,97303.28
2023-02-19T16:17:12.735Z,97293.48
2023-02-19T16:19:49.164Z,97296.12
2023-02-19T16:22:20.561Z,97294.81
2023-02-19T16:24:53.189Z,97296.27
2023-02-19T16:27:32.411Z,97304.47
2023-02-19T16:30:17.393Z,97302.48
2023-02-19T16:32:47.446Z,97287.98
2023-02-19T16:35:37.150Z,97277.86
2023-02-19T16:38:17.124Z,97255.16
2023-02-19T16:40:45.758Z,97250.96
2023-02-19T16:43:31.428Z,97251.98
2023-02-19T16:46:00.863Z,97245.37
2023-02-19T16:48:33.931Z,97248.89
2023-02-19T16:51:03.181Z,97252.02
2023-02-19T16:53:42.077Z,97259.35
2023-02-19T16:56:18.728Z,97260.27
2023-02-19T16:58:47.709Z,97252.38
2023-02-19T17:01:16.813Z,97262.53
2023-02-19T17:03:47.498Z,97266.31
2023-02-19T17:06:16.737Z,97270.63
2023-02-19T17:08:45.495Z,97284.73
2023-02-19T17:11:16.462Z,97311.34
2023-02-19T17:13:50.027Z,97325.39
2023-02-19T17:16:27.326Z,97312.77
2023-02-19T17:19:01.760Z,97318.14
2023-02-19T17:21:34.767Z,97320.55
2023-02-19T17:24:10.172Z,97323.59
2023-02-19T17:26:46.623Z,97326.95
2023-02-19T17:29:20.411Z,97327.59
2023-02-19T17:31:55.294Z,97329.59
2023-02-19T17:34:26.899Z,97324.27
2023-02-19T17:36:55.668Z,97315.08
2023-02-19T17:39:29.345Z,97310.08
2023-02-19T17:41:58.249Z,97309.21
2023-02-19T17:44:27.068Z,97304.14
2023-02-19T17:46:55.835Z,97305.94
2023-02-19T17:49:27.168Z,97301.05
2023-02-19T17:51:55.945Z,97288.83
2023-02-19T17:54:24.642Z,97285.98
2023-02-19T17:56:53.101Z,97285.89
2023-02-19T17:59:21.560Z,97287.14
2023-02-19T18:01:50.033Z,97283.10
2023-02-19T18:04:18.647Z,97285.51
2023-02-19T18:06:48.360Z,97294.49
2023-02-19T18:09:19.588Z,97301.38
2023-02-19T18:11:50.430Z,97316.00
2023-02-19T18:14:19.104Z,97321.90
2023-02-19T18:16:50.436Z,97317.73
2023-02-19T18:19:23.108Z,97327.75
2023-02-19T18:21:52.296Z,97343.73
2023-02-19T18:24:25.845Z,97355.08
2023-02-19T18:26:56.653Z,97362.08
2023-02-19T18:29:35.729Z,97369.62
2023-02-19T18:32:06.701Z,97377.14
2023-02-19T18:34:40.939Z,97396.00
2023-02-19T18:37:18.663Z,97418.86
2023-02-19T18:39:47.559Z,97424.64
2023-02-19T18:42:21.663Z,97427.05
2023-02-19T18:44:54.148Z,97441.06
2023-02-19T18:47:25.654Z,97435.46
2023-02-19T18:49:59.979Z,97452.54
2023-02-19T18:52:37.437Z,97455.39
2023-02-19T18:55:20.076Z,97448.95
2023-02-19T18:57:48.722Z,97463.98
2023-02-19T19:00:25.771Z,97480.48
2023-02-19T19:02:59.663Z,97494.67
2023-02-19T19:05:28.485Z,97502.60
2023-02-19T19:07:59.589Z,97490.48
2023-02-19T19:10:32.627Z,97514.57
2023-02-19T19:13:02.230Z,97531.08
2023-02-19T19:15:31.142Z,97532.29
2023-02-19T19:18:00.145Z,97546.40
2023-02-19T19:20:28.804Z,97561.50
2023-02-19T19:22:57.521Z,97567.11
2023-02-19T19:25:29.091Z,97568.96
2023-02-19T19:28:03.102Z,97559.16
2023-02-19T19:30:31.840Z,97564.83
2023-02-19T19:33:01.923Z,97572.65
2023-02-19T19:35:35.604Z,97573.60
2023-02-19T19:38:04.988Z,97576.61
2023-02-19T19:40:36.484Z,97584.11
2023-02-19T19:43:10.596Z,97592.38
2023-02-19T19:45:39.597Z,97594.41
2023-02-19T19:48:08.136Z,97589.63
2023-02-19T19:50:36.771Z,97580.11
2023-02-19T19:53:05.305Z,97581.85
2023-02-19T19:55:34.011Z,97575.11
2023-02-19T19:58:02.862Z,97574.56
2023-02-19T20:00:31.601Z,97577.10
2023-02-19T20:03:00.191Z,97577.65
2023-02-19T20:05:34.105Z,97582.61
2023-02-19T20:08:02.781Z,97588.91
2023-02-19T20:10:31.581Z,97591.35
2023-02-19T20:13:00.550Z,97590.27
2023-02-19T20:15:29.262Z,97596.82
2023-02-19T20:17:58.165Z,97601.10
2023-02-19T20:20:26.909Z,97599.91
2023-02-19T20:22:56.253Z,97601.58
2023-02-19T20:25:28.054Z,97606.56
2023-02-19T20:27:56.996Z,97609.64
2023-02-19T20:30:26.054Z,97612.03
2023-02-19T20:32:55.076Z,97608.77
2023-02-19T20:35:28.664Z,97609.58
2023-02-19T20:37:57.533Z,97616.73
2023-02-19T20:40:27.912Z,97614.91
2023-02-19T20:42:57.381Z,97616.42
2023-02-19T20:45:26.010Z,97612.25
2023-02-19T20:47:54.646Z,97614.25
2023-02-19T20:50:23.586Z,97621.34
2023-02-19T20:52:53.797Z,97625.94
2023-02-19T20:55:23.779Z,97634.10
2023-02-19T20:57:52.295Z,97631.91
2023-02-19T21:00:21.484Z,97632.11
2023-02-19T21:02:50.086Z,97634.86
2023-02-19T21:05:19.935Z,97637.40
2023-02-19T21:07:50.513Z,97644.04
2023-02-19T21:10:19.097Z,97652.38
2023-02-19T21:12:48.330Z,97660.49
2023-02-19T21:15:17.239Z,97661.71
2023-02-19T21:17:46.886Z,97656.45
2023-02-19T21:20:18.097Z,97654.71
2023-02-19T21:22:46.923Z,97662.75
2023-02-19T21:25:16.097Z,97671.73
2023-02-19T21:27:44.730Z,97686.39
2023-02-19T21:30:13.732Z,97693.85
2023-02-19T21:32:42.350Z,97702.88
2023-02-19T21:35:11.249Z,97713.47
2023-02-19T21:37:43.295Z,97718.86
2023-02-19T21:40:14.314Z,97727.72
2023-02-19T21:42:43.358Z,97737.65
2023-02-19T21:45:14.969Z,97741.66
2023-02-19T21:47:46.597Z,97747.30
2023-02-19T21:50:15.166Z,97755.29
2023-02-19T21:52:43.897Z,97766.02
2023-02-19T21:55:12.353Z,97773.36
2023-02-19T21:57:41.339Z,97773.46
2023-02-19T22:00:10.859Z,97786.16
2023-02-19T22:02:39.659Z,97798.42
2023-02-19T22:05:09.046Z,97807.09
2023-02-19T22:07:37.737Z,97808.88
2023-02-19T22:10:08.174Z,97821.48
2023-02-19T22:12:36.926Z,97827.47
2023-02-19T22:15:06.019Z,97835.58
2023-02-19T22:17:38.820Z,97842.36
2023-02-19T22:20:08.003Z,97846.64
2023-02-19T22:22:36.707Z,97847.45
2023-02-19T22:25:06.656Z,97849.32
2023-02-19T22:27:35.526Z,97851.30
2023-02-19T22:30:05.164Z,97859.50
2023-02-19T22:32:33.799Z,97865.29
2023-02-19T22:35:02.689Z,97867.56
2023-02-19T22:37:32.433Z,97873.58
2023-02-19T22:40:00.984Z,97870.02
2023-02-19T22:42:29.633Z,97873.95
2023-02-19T22:44:58.118Z,97878.16
2023-02-19T22:47:26.562Z,97881.23
2023-02-19T22:49:55.118Z,97880.92
2023-02-19T22:52:28.939Z,97877.84
2023-02-19T22:54:57.725Z,97872.52
2023-02-19T22:57:28.347Z,97872.94
2023-02-19T22:59:56.803Z,97879.33
2023-02-19T23:02:25.416Z,97885.77
2023-02-19T23:04:55.018Z,97887.88
2023-02-19T23:07:29.535Z,97893.87
2023-02-19T23:10:00.639Z,97894.85
2023-02-19T23:12:35.161Z,97895.23
2023-02-19T23:15:15.579Z,97894.42
2023-02-19T23:17:45.742Z,97901.39
2023-02-19T23:20:20.432Z,97904.88
2023-02-19T23:22:53.830Z,97912.16
2023-02-19T23:25:28.322Z,97915.34
2023-02-19T23:27:58.744Z,97909.98
2023-02-19T23:30:30.805Z,97912.64
2023-02-19T23:33:02.655Z,97915.13
2023-02-19T23:35:32.150Z,97921.26
2023-02-19T23:38:01.506Z,97922.39
2023-02-19T23:40:32.531Z,97926.64
2023-02-19T23:43:01.107Z,97926.90
2023-02-19T23:45:32.786Z,97930.15
2023-02-19T23:48:01.386Z,97936.95
2023-02-19T23:50:43.311Z,97943.38
2023-02-19T23:53:17.581Z,97944.15
2023-02-19T23:55:53.530Z,97950.22
2023-02-19T23:58:21.934Z,97950.70
